Time;durP1;ratioP1;P1;durP2;ratioP2;P2;SDS_P1;SDS_P2;PMS_P1;PMS_P2;Temp;Humidity;BMP_temperature;BMP_pressure;BME280_temperature;BME280_humidity;BME280_pressure;Samples;Min_cycle;Max_cycle;Signal;HPM_P1;HPM_P2
2022/10/19 00:00:25;;;;;;;5.72;1.58;;;11.70;99.90;;;;;;5041021;28;20544;-46
2022/10/19 00:02:51;;;;;;;7.78;1.50;;;11.70;99.90;;;;;;5043939;28;20412;-44
2022/10/19 00:05:17;;;;;;;9.07;1.92;;;11.60;99.90;;;;;;5043857;28;20424;-43
2022/10/19 00:07:42;;;;;;;5.45;1.63;;;11.60;99.90;;;;;;5046456;28;20041;-45
2022/10/19 00:10:08;;;;;;;8.82;2.10;;;11.70;99.90;;;;;;5047161;28;20025;-43
2022/10/19 00:12:34;;;;;;;5.22;1.50;;;11.50;99.90;;;;;;5043174;28;20068;-46
2022/10/19 00:15:00;;;;;;;6.07;1.85;;;11.60;99.90;;;;;;5043287;28;20030;-43
2022/10/19 00:17:26;;;;;;;5.95;1.85;;;11.50;99.90;;;;;;5045229;28;20522;-42
2022/10/19 00:19:51;;;;;;;7.85;1.63;;;11.30;99.90;;;;;;5048410;28;20042;-44
2022/10/19 00:22:17;;;;;;;8.13;1.58;;;11.30;99.90;;;;;;5041726;28;20029;-44
2022/10/19 00:24:43;;;;;;;5.05;1.90;;;11.10;99.90;;;;;;5043029;28;20036;-45
2022/10/19 00:27:09;;;;;;;5.32;1.88;;;11.10;99.90;;;;;;5045667;28;20068;-43
2022/10/19 00:29:34;;;;;;;5.25;1.65;;;11.00;99.90;;;;;;5045582;28;20037;-44
2022/10/19 00:32:00;;;;;;;8.50;1.70;;;10.70;99.90;;;;;;5045378;28;20060;-43
2022/10/19 00:34:26;;;;;;;5.50;1.60;;;10.80;99.90;;;;;;5040991;28;20427;-44
2022/10/19 00:36:51;;;;;;;7.38;1.88;;;10.70;99.90;;;;;;5042792;28;20037;-45
2022/10/19 00:39:17;;;;;;;3.47;1.20;;;10.60;99.90;;;;;;5044133;28;20408;-43
2022/10/19 00:41:45;;;;;;;6.03;1.55;;;10.40;99.90;;;;;;5046518;28;20479;-46
2022/10/19 00:44:11;;;;;;;6.05;1.33;;;10.30;99.90;;;;;;5044234;28;20040;-43
2022/10/19 00:46:41;;;;;;;7.85;1.60;;;10.30;99.90;;;;;;5044218;28;20396;-44
2022/10/19 00:49:23;;;;;;;6.10;1.58;;;10.30;99.90;;;;;;5042949;28;20033;-43
2022/10/19 00:52:00;;;;;;;7.85;2.22;;;10.20;99.90;;;;;;5043054;28;20045;-44
2022/10/19 00:54:26;;;;;;;6.63;1.80;;;10.10;99.90;;;;;;5045822;28;20124;-46
2022/10/19 00:56:55;;;;;;;5.43;1.65;;;10.00;99.90;;;;;;5043083;28;20041;-42
2022/10/19 00:59:24;;;;;;;5.35;1.70;;;9.90;99.90;;;;;;5046496;28;20040;-43
2022/10/19 01:01:51;;;;;;;6.97;1.90;;;9.90;99.90;;;;;;5041153;28;20040;-43
2022/10/19 01:04:19;;;;;;;7.03;1.73;;;9.80;99.90;;;;;;5042873;28;20036;-44
2022/10/19 01:06:45;;;;;;;5.10;1.60;;;9.80;99.90;;;;;;5043343;28;20043;-46
2022/10/19 01:09:11;;;;;;;6.00;1.80;;;9.70;99.90;;;;;;5045335;28;20036;-43
2022/10/19 01:11:51;;;;;;;6.13;1.63;;;9.70;99.90;;;;;;5045799;28;20045;-46
2022/10/19 01:14:29;;;;;;;8.52;1.77;;;9.70;99.90;;;;;;5040468;28;20064;-43
2022/10/19 01:17:22;;;;;;;5.15;1.55;;;9.60;99.90;;;;;;5041844;28;20419;-45
2022/10/19 01:20:20;;;;;;;7.22;2.00;;;9.70;99.90;;;;;;5045406;28;20045;-44
2022/10/19 01:23:01;;;;;;;6.05;1.88;;;9.60;99.90;;;;;;5042674;28;20364;-45
2022/10/19 01:25:48;;;;;;;4.43;1.90;;;9.70;99.90;;;;;;5042131;28;20033;-44
2022/10/19 01:28:21;;;;;;;9.27;2.00;;;9.80;99.90;;;;;;5044797;28;20057;-43
2022/10/19 01:31:03;;;;;;;4.60;2.10;;;9.70;99.90;;;;;;5046656;28;20052;-45
2022/10/19 01:33:40;;;;;;;7.68;2.00;;;9.90;99.90;;;;;;5040110;28;20040;-45
2022/10/19 01:36:09;;;;;;;4.40;2.17;;;9.60;99.90;;;;;;5045539;28;20514;-46
2022/10/19 01:39:03;;;;;;;8.18;2.38;;;9.80;99.90;;;;;;5043070;28;20044;-44
2022/10/19 01:41:48;;;;;;;12.90;2.50;;;9.80;99.90;;;;;;5045530;28;20037;-45
2022/10/19 01:44:27;;;;;;;6.47;2.30;;;9.70;99.90;;;;;;5040775;28;20562;-45
2022/10/19 01:46:59;;;;;;;5.28;2.10;;;9.70;99.90;;;;;;5041896;28;20402;-44
2022/10/19 01:49:32;;;;;;;5.78;2.08;;;9.80;99.90;;;;;;5043618;28;20021;-45
2022/10/19 01:52:03;;;;;;;5.70;2.42;;;9.50;99.90;;;;;;5045189;28;20045;-45
2022/10/19 01:54:36;;;;;;;6.13;2.40;;;9.70;99.90;;;;;;5039966;28;20102;-42
2022/10/19 01:57:05;;;;;;;7.35;2.75;;;9.60;99.90;;;;;;5040260;28;20048;-44
2022/10/19 01:59:32;;;;;;;10.50;2.97;;;9.70;99.90;;;;;;5042532;28;20555;-43
2022/10/19 02:01:59;;;;;;;11.30;2.70;;;9.90;99.90;;;;;;5045210;28;20041;-44
2022/10/19 02:04:25;;;;;;;8.02;2.80;;;9.70;99.90;;;;;;5044644;28;20041;-46
2022/10/19 02:06:54;;;;;;;6.78;2.78;;;9.60;99.90;;;;;;5042518;28;20426;-44
2022/10/19 02:09:20;;;;;;;7.72;3.03;;;9.50;99.90;;;;;;5045880;28;20033;-43
2022/10/19 02:11:50;;;;;;;6.63;3.00;;;9.70;99.90;;;;;;5050409;28;20540;-43
2022/10/19 02:14:21;;;;;;;10.45;3.10;;;9.50;99.90;;;;;;5046829;28;20086;-43
2022/10/19 02:16:54;;;;;;;10.85;3.13;;;9.70;99.90;;;;;;5045244;28;20032;-43
2022/10/19 02:19:21;;;;;;;8.75;3.08;;;9.50;99.90;;;;;;5047312;28;20076;-43
2022/10/19 02:21:46;;;;;;;8.25;2.78;;;9.70;99.90;;;;;;5049932;28;20037;-46
2022/10/19 02:24:12;;;;;;;7.63;3.17;;;9.40;99.90;;;;;;5044718;28;20037;-44
2022/10/19 02:26:39;;;;;;;5.57;2.67;;;9.60;99.90;;;;;;5045449;28;20091;-43
2022/10/19 02:29:05;;;;;;;12.00;2.90;;;9.50;99.90;;;;;;5031762;28;20099;-47
2022/10/19 02:31:31;;;;;;;6.20;2.80;;;9.70;99.90;;;;;;5049789;28;20395;-43
2022/10/19 02:33:57;;;;;;;7.25;3.00;;;9.70;99.90;;;;;;5047153;28;20041;-43
2022/10/19 02:36:23;;;;;;;9.77;2.90;;;9.50;99.90;;;;;;5045098;28;20052;-45
2022/10/19 02:38:48;;;;;;;9.25;3.00;;;9.50;99.90;;;;;;5047814;28;20057;-47
2022/10/19 02:41:23;;;;;;;8.95;2.80;;;9.70;99.90;;;;;;5048533;28;20044;-44
2022/10/19 02:43:53;;;;;;;8.18;3.10;;;9.60;99.90;;;;;;5043506;28;20197;-44
2022/10/19 02:46:33;;;;;;;7.55;2.22;;;9.60;99.90;;;;;;5042728;28;20044;-44
2022/10/19 02:49:02;;;;;;;5.85;2.30;;;9.80;99.90;;;;;;5046341;28;20029;-43
2022/10/19 02:51:36;;;;;;;8.75;2.75;;;9.60;99.90;;;;;;5049124;28;20033;-43
2022/10/19 02:54:03;;;;;;;12.23;2.50;;;9.60;99.90;;;;;;5044404;28;20499;-44
2022/10/19 02:56:29;;;;;;;7.55;2.60;;;9.70;99.90;;;;;;5044938;28;20059;-47
2022/10/19 02:58:55;;;;;;;6.07;2.20;;;9.70;99.90;;;;;;5045884;28;20033;-44
2022/10/19 03:01:21;;;;;;;6.22;2.75;;;9.60;99.90;;;;;;5048627;28;20045;-43
2022/10/19 03:03:46;;;;;;;7.95;2.53;;;9.60;99.90;;;;;;5049951;28;20048;-44
2022/10/19 03:06:12;;;;;;;7.32;2.72;;;9.40;99.90;;;;;;5043902;28;20041;-43
2022/10/19 03:08:38;;;;;;;10.10;2.80;;;9.30;99.90;;;;;;5046123;28;20082;-44
2022/10/19 03:11:05;;;;;;;8.48;2.67;;;9.40;99.90;;;;;;5047574;28;20063;-44
2022/10/19 03:13:31;;;;;;;7.68;2.65;;;9.50;99.90;;;;;;5048763;28;20480;-44
2022/10/19 03:15:57;;;;;;;11.60;3.38;;;9.30;99.90;;;;;;5044149;28;20029;-46
2022/10/19 03:18:22;;;;;;;7.72;3.10;;;9.40;99.90;;;;;;5045164;28;20041;-42
2022/10/19 03:20:48;;;;;;;6.47;2.55;;;9.40;99.90;;;;;;5047702;28;20143;-44
2022/10/19 03:23:14;;;;;;;9.45;2.78;;;9.50;99.90;;;;;;5047669;28;20489;-43
2022/10/19 03:25:39;;;;;;;8.25;3.28;;;9.30;99.90;;;;;;5042832;28;20036;-45
2022/10/19 03:28:05;;;;;;;7.15;3.20;;;9.40;99.90;;;;;;5045448;28;20033;-42
2022/10/19 03:30:31;;;;;;;9.88;3.20;;;9.40;99.90;;;;;;5046903;28;20036;-44
2022/10/19 03:32:56;;;;;;;7.90;3.50;;;9.40;99.90;;;;;;5049386;28;20124;-44
2022/10/19 03:35:22;;;;;;;6.75;3.17;;;9.20;99.90;;;;;;5043301;28;20095;-44
2022/10/19 03:37:47;;;;;;;7.45;2.90;;;9.30;99.90;;;;;;5045488;28;20032;-45
2022/10/19 03:40:13;;;;;;;7.03;2.83;;;9.40;99.90;;;;;;5045326;28;20055;-43
2022/10/19 03:42:39;;;;;;;7.07;3.17;;;9.30;99.90;;;;;;5048213;28;20132;-45
2022/10/19 03:45:05;;;;;;;7.75;2.97;;;9.20;99.90;;;;;;5043372;28;20063;-44
2022/10/19 03:47:30;;;;;;;7.10;3.03;;;9.40;99.90;;;;;;5042414;28;20025;-44
2022/10/19 03:49:56;;;;;;;9.98;3.28;;;9.40;99.90;;;;;;5043914;28;20033;-45
2022/10/19 03:52:22;;;;;;;8.52;3.42;;;9.40;99.90;;;;;;5045305;28;20127;-43
2022/10/19 03:54:51;;;;;;;8.70;3.20;;;9.30;99.90;;;;;;5048296;28;20071;-45
2022/10/19 03:57:16;;;;;;;6.93;3.33;;;9.40;99.90;;;;;;5042590;28;20041;-46
2022/10/19 03:59:45;;;;;;;6.40;2.75;;;9.50;99.90;;;;;;5045125;28;20052;-43
2022/10/19 04:02:10;;;;;;;10.80;2.65;;;9.30;99.90;;;;;;5046667;28;20132;-45
2022/10/19 04:04:36;;;;;;;7.93;3.10;;;9.60;99.90;;;;;;5048434;28;20454;-42
2022/10/19 04:07:02;;;;;;;11.73;3.03;;;9.30;99.90;;;;;;5042243;28;20540;-44
2022/10/19 04:09:27;;;;;;;10.80;2.70;;;9.40;99.90;;;;;;5030346;28;20076;-46
2022/10/19 04:11:53;;;;;;;7.00;2.60;;;9.70;99.90;;;;;;5045052;28;20551;-44
2022/10/19 04:14:22;;;;;;;7.07;2.25;;;9.40;99.90;;;;;;5047197;28;20507;-43
2022/10/19 04:16:47;;;;;;;6.05;2.10;;;9.70;99.90;;;;;;5045693;28;20033;-43
2022/10/19 04:19:14;;;;;;;8.73;2.40;;;9.50;99.90;;;;;;5042764;28;20041;-46
2022/10/19 04:21:42;;;;;;;9.57;2.17;;;9.50;99.90;;;;;;5045171;28;20542;-43
2022/10/19 04:24:14;;;;;;;6.15;2.40;;;9.70;99.90;;;;;;5046860;28;20033;-42
2022/10/19 04:26:43;;;;;;;7.20;1.92;;;9.60;99.90;;;;;;5043901;28;20414;-43
2022/10/19 04:29:09;;;;;;;9.13;2.03;;;9.60;99.90;;;;;;5041943;28;20048;-44
2022/10/19 04:31:35;;;;;;;7.97;1.90;;;9.70;99.90;;;;;;5042322;28;20039;-44
2022/10/19 04:34:01;;;;;;;12.82;1.88;;;9.60;99.90;;;;;;5044888;28;20040;-44
2022/10/19 04:36:27;;;;;;;7.82;2.00;;;9.50;99.90;;;;;;5047639;28;20045;-44
2022/10/19 04:38:52;;;;;;;6.05;1.77;;;9.70;99.90;;;;;;5042368;28;20056;-46
2022/10/19 04:41:20;;;;;;;9.43;2.25;;;9.70;99.90;;;;;;5042740;28;21102;-43
2022/10/19 04:43:46;;;;;;;7.32;1.73;;;9.60;99.90;;;;;;5044814;28;20040;-43
2022/10/19 04:46:14;;;;;;;6.53;1.85;;;9.50;99.90;;;;;;5046031;28;20372;-43
2022/10/19 04:48:40;;;;;;;7.10;1.85;;;9.40;99.90;;;;;;5045562;28;20119;-44
2022/10/19 04:51:06;;;;;;;5.72;1.67;;;9.50;99.90;;;;;;5041722;28;20119;-43
2022/10/19 04:53:33;;;;;;;9.32;1.65;;;9.40;99.90;;;;;;5043997;28;20110;-44
2022/10/19 04:55:59;;;;;;;12.57;2.03;;;9.50;99.90;;;;;;5045160;28;20083;-44
2022/10/19 04:58:26;;;;;;;10.63;2.00;;;9.40;99.90;;;;;;5047291;28;20080;-47
2022/10/19 05:00:51;;;;;;;6.00;1.80;;;9.50;99.90;;;;;;5046722;28;20040;-44
2022/10/19 05:03:17;;;;;;;8.18;1.80;;;9.50;99.90;;;;;;5057333;28;20403;-45
2022/10/19 05:05:43;;;;;;;7.38;1.92;;;9.60;99.90;;;;;;5044030;28;20068;-45
2022/10/19 05:08:09;;;;;;;7.15;1.98;;;9.60;99.90;;;;;;5047108;28;20037;-44
2022/10/19 05:10:36;;;;;;;6.05;1.58;;;9.30;99.90;;;;;;5043041;28;20087;-42
2022/10/19 05:13:02;;;;;;;10.25;2.17;;;9.50;99.90;;;;;;5043226;28;20050;-45
2022/10/19 05:15:29;;;;;;;11.27;1.92;;;9.50;99.90;;;;;;5044417;28;20087;-44
2022/10/19 05:17:55;;;;;;;7.57;2.25;;;9.40;99.90;;;;;;5047628;28;20121;-43
2022/10/19 05:20:21;;;;;;;7.65;1.90;;;9.50;99.90;;;;;;5044736;28;20042;-43
2022/10/19 05:22:47;;;;;;;8.60;2.13;;;9.40;99.90;;;;;;5041245;28;20042;-44
2022/10/19 05:25:13;;;;;;;13.40;2.10;;;9.40;99.90;;;;;;5043669;28;20125;-45
2022/10/19 05:27:38;;;;;;;8.07;1.73;;;9.60;99.90;;;;;;5045915;28;20068;-43
2022/10/19 05:30:05;;;;;;;11.77;1.80;;;9.50;99.90;;;;;;5044731;28;20499;-44
2022/10/19 05:32:31;;;;;;;5.78;1.60;;;9.40;99.90;;;;;;5041126;28;20132;-46
2022/10/19 05:35:00;;;;;;;9.32;2.20;;;9.60;99.90;;;;;;5043929;28;20128;-45
2022/10/19 05:37:26;;;;;;;8.27;1.88;;;9.40;99.90;;;;;;5045943;28;20041;-44
2022/10/19 05:39:53;;;;;;;9.25;1.85;;;9.50;99.90;;;;;;5044423;28;20091;-43
2022/10/19 05:42:19;;;;;;;7.70;2.03;;;9.50;99.90;;;;;;5041316;28;20544;-43
2022/10/19 05:44:44;;;;;;;8.85;2.50;;;9.40;99.90;;;;;;5043857;28;20044;-45
2022/10/19 05:47:10;;;;;;;8.32;1.83;;;9.50;99.90;;;;;;5046076;28;20086;-43
2022/10/19 05:49:35;;;;;;;6.70;1.80;;;9.60;99.90;;;;;;5041650;28;20070;-42
2022/10/19 05:52:01;;;;;;;7.18;1.90;;;9.50;99.90;;;;;;5040841;28;20060;-44
2022/10/19 05:54:27;;;;;;;8.05;2.63;;;9.40;99.90;;;;;;5042989;28;20037;-45
2022/10/19 05:56:53;;;;;;;6.70;2.25;;;9.60;99.90;;;;;;5045657;28;20044;-42
2022/10/19 05:59:20;;;;;;;7.30;2.67;;;9.30;99.90;;;;;;5042604;28;20041;-44
2022/10/19 06:01:46;;;;;;;10.32;1.90;;;9.50;99.90;;;;;;5040474;28;20061;-45
2022/10/19 06:04:13;;;;;;;10.23;2.60;;;9.30;99.90;;;;;;5040495;28;20041;-43
2022/10/19 06:06:40;;;;;;;9.52;2.00;;;9.50;99.90;;;;;;5044511;28;20112;-42
2022/10/19 06:09:07;;;;;;;8.63;2.00;;;9.40;99.90;;;;;;5044535;28;20045;-44
2022/10/19 06:11:35;;;;;;;9.63;2.20;;;9.60;99.90;;;;;;5043552;28;20041;-43
2022/10/19 06:14:06;;;;;;;7.95;1.77;;;9.60;99.90;;;;;;5040419;28;20044;-43
2022/10/19 06:16:32;;;;;;;9.48;2.25;;;9.50;99.90;;;;;;5042387;28;20428;-46
2022/10/19 06:18:58;;;;;;;7.18;1.83;;;9.60;99.90;;;;;;5044735;28;20504;-44
2022/10/19 06:21:27;;;;;;;7.75;1.92;;;9.30;99.90;;;;;;5045952;28;20157;-43
2022/10/19 06:23:57;;;;;;;9.73;2.03;;;9.60;99.90;;;;;;5039464;28;20048;-43
2022/10/19 06:26:24;;;;;;;6.55;1.67;;;9.40;99.90;;;;;;5042669;28;20042;-44
2022/10/19 06:28:50;;;;;;;12.00;2.55;;;9.50;99.90;;;;;;5045114;28;20033;-45
2022/10/19 06:31:16;;;;;;;8.95;2.55;;;9.60;99.90;;;;;;5046836;28;20423;-43
2022/10/19 06:33:45;;;;;;;9.60;2.13;;;9.50;99.90;;;;;;5040736;28;20512;-45
2022/10/19 06:36:19;;;;;;;8.95;2.30;;;9.70;99.90;;;;;;5041216;28;20036;-44
2022/10/19 06:38:45;;;;;;;12.02;2.03;;;9.50;99.90;;;;;;5043174;28;20175;-46
2022/10/19 06:41:11;;;;;;;10.15;2.00;;;9.80;99.90;;;;;;5044688;28;20049;-42
2022/10/19 06:43:37;;;;;;;12.63;2.20;;;9.60;99.90;;;;;;5039186;28;20033;-44
2022/10/19 06:46:09;;;;;;;9.07;2.30;;;9.70;99.90;;;;;;5041367;28;20048;-44
2022/10/19 06:48:34;;;;;;;9.50;2.17;;;9.90;99.90;;;;;;5042115;28;20531;-42
2022/10/19 06:51:03;;;;;;;11.80;2.40;;;9.80;99.90;;;;;;5042395;28;20041;-45
2022/10/19 06:53:29;;;;;;;11.40;2.10;;;9.80;99.90;;;;;;5036879;28;20044;-45
2022/10/19 06:55:58;;;;;;;8.85;2.10;;;10.00;99.90;;;;;;5036300;28;20044;-44
2022/10/19 06:58:24;;;;;;;12.15;2.30;;;10.00;99.90;;;;;;5038094;28;20523;-43
2022/10/19 07:00:58;;;;;;;11.20;2.30;;;10.10;99.90;;;;;;5036925;28;20060;-44
2022/10/19 07:03:28;;;;;;;9.05;2.03;;;10.10;99.90;;;;;;5034199;28;20498;-42
2022/10/19 07:05:58;;;;;;;10.60;2.20;;;10.10;99.90;;;;;;5035311;28;20057;-45
2022/10/19 07:08:25;;;;;;;9.80;1.98;;;10.00;99.90;;;;;;5039046;28;20037;-45
2022/10/19 07:10:56;;;;;;;8.43;1.98;;;10.10;99.90;;;;;;5038597;28;20029;-44
2022/10/19 07:13:22;;;;;;;10.70;2.05;;;10.30;99.90;;;;;;5039053;28;20033;-43
2022/10/19 07:15:48;;;;;;;15.68;2.30;;;10.10;99.90;;;;;;5038821;28;20051;-43
2022/10/19 07:18:14;;;;;;;9.55;2.25;;;10.30;99.90;;;;;;5052836;28;20036;-44
2022/10/19 07:20:40;;;;;;;10.50;2.08;;;10.20;99.90;;;;;;5040087;28;20048;-43
2022/10/19 07:23:06;;;;;;;7.65;2.13;;;10.40;99.90;;;;;;5039059;28;20029;-47
2022/10/19 07:25:32;;;;;;;10.57;2.30;;;10.20;99.90;;;;;;5035472;28;20040;-44
2022/10/19 07:27:58;;;;;;;8.63;2.13;;;10.20;99.90;;;;;;5040369;28;20033;-48
2022/10/19 07:30:23;;;;;;;10.30;2.10;;;10.20;99.90;;;;;;5039605;28;20033;-43
2022/10/19 07:32:49;;;;;;;14.18;2.88;;;10.40;99.90;;;;;;5037477;28;20151;-42
2022/10/19 07:35:15;;;;;;;12.52;2.38;;;10.40;99.90;;;;;;5038155;28;20060;-43
2022/10/19 07:37:40;;;;;;;9.30;2.10;;;10.60;99.90;;;;;;5037368;28;20036;-44
2022/10/19 07:40:07;;;;;;;11.20;2.08;;;10.40;99.90;;;;;;5038211;28;20665;-44
2022/10/19 07:42:33;;;;;;;10.05;2.13;;;10.50;99.90;;;;;;5039145;28;20045;-43
2022/10/19 07:44:59;;;;;;;10.80;1.73;;;10.70;99.90;;;;;;5037998;28;20055;-44
2022/10/19 07:47:24;;;;;;;11.13;2.03;;;10.50;99.90;;;;;;5041092;28;20139;-43
2022/10/19 07:49:50;;;;;;;11.40;2.00;;;10.70;99.90;;;;;;5038849;28;20536;-43
2022/10/19 07:52:15;;;;;;;8.80;2.30;;;10.70;99.90;;;;;;5040047;28;20466;-44
2022/10/19 07:54:41;;;;;;;9.38;2.03;;;10.80;99.90;;;;;;5038754;28;20053;-44
2022/10/19 07:57:09;;;;;;;11.75;2.33;;;10.90;99.90;;;;;;5038887;28;20110;-48
2022/10/19 07:59:35;;;;;;;8.98;2.30;;;11.00;99.90;;;;;;5040008;28;20037;-43
2022/10/19 08:02:03;;;;;;;8.77;2.40;;;11.00;99.90;;;;;;5039347;28;20110;-44
2022/10/19 08:04:29;;;;;;;9.32;1.65;;;11.10;99.90;;;;;;5036565;28;20665;-46
2022/10/19 08:06:54;;;;;;;7.20;1.70;;;11.20;99.90;;;;;;5055158;28;20044;-45
2022/10/19 08:09:20;;;;;;;8.77;2.05;;;11.20;99.90;;;;;;5040779;28;20029;-42
2022/10/19 08:11:46;;;;;;;10.95;1.50;;;11.20;99.90;;;;;;5038875;28;20463;-45
2022/10/19 08:14:11;;;;;;;10.20;1.67;;;11.30;99.90;;;;;;5040371;28;20037;-44
2022/10/19 08:16:39;;;;;;;10.27;1.95;;;11.20;99.90;;;;;;5038057;28;20087;-44
2022/10/19 08:19:10;;;;;;;8.32;1.63;;;11.20;99.90;;;;;;5037951;28;20099;-46
2022/10/19 08:21:38;;;;;;;10.00;1.65;;;11.30;99.90;;;;;;5040008;28;20044;-44
2022/10/19 08:24:05;;;;;;;11.68;1.90;;;11.40;99.90;;;;;;5037952;28;20110;-45
2022/10/19 08:26:33;;;;;;;10.82;2.25;;;11.30;99.90;;;;;;5038195;28;20064;-46
2022/10/19 08:29:00;;;;;;;12.15;1.90;;;11.50;99.90;;;;;;5039670;28;20030;-46
2022/10/19 08:31:26;;;;;;;13.02;1.80;;;11.40;99.90;;;;;;5037701;28;20072;-43
2022/10/19 08:33:52;;;;;;;11.98;2.78;;;11.50;99.90;;;;;;5040053;28;20122;-43
2022/10/19 08:36:21;;;;;;;11.13;1.95;;;11.60;99.90;;;;;;5039312;28;20090;-42
2022/10/19 08:38:47;;;;;;;11.00;1.63;;;11.70;99.90;;;;;;5038630;28;20032;-43
2022/10/19 08:41:28;;;;;;;11.15;2.10;;;11.60;99.90;;;;;;5037889;28;20106;-42
2022/10/19 08:44:22;;;;;;;9.00;1.20;;;11.70;99.90;;;;;;5037949;28;20075;-46
2022/10/19 08:47:28;;;;;;;12.38;1.65;;;11.80;99.90;;;;;;5039535;28;20032;-43
2022/10/19 08:49:55;;;;;;;18.05;1.98;;;11.90;99.90;;;;;;5000255;28;20132;-45
2022/10/19 08:52:25;;;;;;;16.67;2.30;;;12.00;99.90;;;;;;5033986;28;20053;-43
2022/10/19 08:54:57;;;;;;;8.48;1.23;;;12.10;99.90;;;;;;5039422;28;20048;-45
2022/10/19 08:57:52;;;;;;;13.77;1.90;;;12.20;99.90;;;;;;5039605;28;20405;-45
2022/10/19 09:00:26;;;;;;;11.98;1.80;;;12.30;99.90;;;;;;5037077;28;20437;-43
2022/10/19 09:03:23;;;;;;;11.95;1.92;;;12.30;99.90;;;;;;5036443;28;20055;-44
2022/10/19 09:06:03;;;;;;;10.20;1.83;;;12.40;99.90;;;;;;5038745;28;20485;-43
2022/10/19 09:08:29;;;;;;;12.30;1.90;;;12.50;99.90;;;;;;5039022;28;20040;-47
2022/10/19 09:10:56;;;;;;;12.93;2.20;;;12.50;99.90;;;;;;5037298;28;20498;-44
2022/10/19 09:13:40;;;;;;;10.48;1.80;;;12.60;99.90;;;;;;5039125;28;20492;-43
2022/10/19 09:16:09;;;;;;;11.82;1.90;;;12.70;99.90;;;;;;5038346;28;20036;-45
2022/10/19 09:18:35;;;;;;;9.20;1.90;;;12.70;99.90;;;;;;5037342;28;20041;-44
2022/10/19 09:21:30;;;;;;;10.80;1.80;;;12.70;99.90;;;;;;5037241;28;20044;-45
2022/10/19 09:24:06;;;;;;;;;;;12.80;99.90;;;;;;5035565;28;20053;-44
2022/10/19 09:26:52;;;;;;;12.45;1.77;;;12.90;99.90;;;;;;5038855;28;20007;-46
2022/10/19 09:29:40;;;;;;;12.65;1.58;;;12.90;99.90;;;;;;5039573;28;20032;-47
2022/10/19 09:32:17;;;;;;;10.07;1.50;;;13.00;99.90;;;;;;5039726;28;20037;-45
2022/10/19 09:34:55;;;;;;;11.95;2.10;;;13.00;99.90;;;;;;5039574;28;20037;-43
2022/10/19 09:37:22;;;;;;;12.07;1.85;;;13.00;99.90;;;;;;5043250;28;20049;-43
2022/10/19 09:39:47;;;;;;;9.52;2.08;;;13.00;99.90;;;;;;5046202;28;20061;-46
2022/10/19 09:42:24;;;;;;;9.18;1.67;;;13.10;99.90;;;;;;5044761;28;20098;-46
2022/10/19 09:44:51;;;;;;;10.18;1.60;;;13.20;99.90;;;;;;5047232;28;20033;-44
2022/10/19 09:47:38;;;;;;;10.52;1.60;;;13.10;99.90;;;;;;5049146;28;20116;-47
2022/10/19 09:50:20;;;;;;;7.53;2.13;;;13.20;99.90;;;;;;5049560;28;20082;-48
2022/10/19 09:52:48;;;;;;;13.75;2.03;;;13.10;99.90;;;;;;5049303;28;20033;-49
2022/10/19 09:55:14;;;;;;;10.48;2.03;;;13.10;99.90;;;;;;5043325;28;20045;-45
2022/10/19 09:57:48;;;;;;;11.82;1.63;;;13.00;99.90;;;;;;5039770;28;20068;-43
2022/10/19 10:00:18;;;;;;;9.70;1.85;;;13.00;99.90;;;;;;5054819;28;20029;-45
2022/10/19 10:02:52;;;;;;;8.15;1.88;;;13.10;99.90;;;;;;5038618;28;20049;-45
2022/10/19 10:05:20;;;;;;;12.52;1.63;;;13.20;99.90;;;;;;5040845;28;20057;-44
2022/10/19 10:07:46;;;;;;;9.13;2.30;;;13.30;99.90;;;;;;5040134;28;20033;-45
2022/10/19 10:10:36;;;;;;;15.43;2.47;;;13.30;99.90;;;;;;5040725;28;20047;-44
2022/10/19 10:13:02;;;;;;;11.73;2.53;;;13.30;99.90;;;;;;5042748;28;20601;-46
2022/10/19 10:15:40;;;;;;;9.10;1.80;;;13.30;99.90;;;;;;5046581;28;20044;-46
2022/10/19 10:18:12;;;;;;;7.88;2.00;;;13.30;99.90;;;;;;5043611;28;20048;-44
2022/10/19 10:20:54;;;;;;;9.52;2.20;;;13.60;99.90;;;;;;5042403;28;20038;-46
2022/10/19 10:23:25;;;;;;;12.68;1.90;;;13.70;99.90;;;;;;5040351;28;20029;-43
2022/10/19 10:25:56;;;;;;;10.63;1.85;;;13.70;99.90;;;;;;5041858;28;20380;-46
2022/10/19 10:28:24;;;;;;;9.43;2.00;;;13.80;99.90;;;;;;5044716;28;20048;-46
2022/10/19 10:31:06;;;;;;;11.80;2.20;;;13.90;99.90;;;;;;5047688;28;20045;-45
2022/10/19 10:33:35;;;;;;;9.13;1.80;;;14.00;99.90;;;;;;5046742;28;20040;-47
2022/10/19 10:36:06;;;;;;;9.20;1.63;;;14.10;99.90;;;;;;5043409;28;20037;-44
2022/10/19 10:38:40;;;;;;;9.27;1.92;;;14.10;99.90;;;;;;5045907;28;20093;-43
2022/10/19 10:41:16;;;;;;;9.50;1.90;;;14.20;99.90;;;;;;5047224;28;20150;-46
2022/10/19 10:44:19;;;;;;;12.25;2.20;;;14.30;99.90;;;;;;5049281;28;20087;-44
2022/10/19 10:46:52;;;;;;;10.57;2.00;;;14.40;99.90;;;;;;5048343;28;20499;-45
2022/10/19 10:49:41;;;;;;;11.75;2.20;;;14.60;99.90;;;;;;5045581;28;20047;-45
2022/10/19 10:52:16;;;;;;;10.77;2.40;;;14.50;99.90;;;;;;5046764;28;20511;-43
2022/10/19 10:55:09;;;;;;;8.52;1.75;;;14.40;99.90;;;;;;5043629;28;20048;-44
2022/10/19 10:57:39;;;;;;;11.75;2.13;;;14.30;99.90;;;;;;5042223;28;20041;-44
2022/10/19 11:00:15;;;;;;;9.15;2.00;;;14.40;99.90;;;;;;5039809;28;20683;-43
2022/10/19 11:02:51;;;;;;;11.27;1.77;;;14.60;99.90;;;;;;5040941;28;20045;-43
2022/10/19 11:05:27;;;;;;;8.88;1.60;;;14.60;99.90;;;;;;5045859;28;20546;-45
2022/10/19 11:08:17;;;;;;;7.82;2.00;;;14.60;99.90;;;;;;5042201;28;20040;-44
2022/10/19 11:10:54;;;;;;;8.00;1.73;;;14.60;99.90;;;;;;5038634;28;20075;-46
2022/10/19 11:13:29;;;;;;;9.48;1.80;;;14.60;99.90;;;;;;5042327;28;20120;-43
2022/10/19 11:16:03;;;;;;;12.43;2.10;;;14.60;99.90;;;;;;5041280;28;20431;-44
2022/10/19 11:18:33;;;;;;;9.00;1.65;;;15.00;99.90;;;;;;5041866;28;20048;-45
2022/10/19 11:21:04;;;;;;;10.05;1.90;;;15.10;99.90;;;;;;5038839;28;20130;-43
2022/10/19 11:23:55;;;;;;;10.60;1.83;;;15.10;99.90;;;;;;5041819;28;20041;-42
2022/10/19 11:26:42;;;;;;;11.75;1.88;;;15.20;99.90;;;;;;5042540;28;20037;-44
2022/10/19 11:29:26;;;;;;;11.43;1.90;;;15.00;99.90;;;;;;5042285;28;20122;-43
2022/10/19 11:31:55;;;;;;;;;;;15.00;99.90;;;;;;5043356;28;20140;-44
2022/10/19 11:34:44;;;;;;;9.90;2.08;;;15.10;99.90;;;;;;5041069;28;20016;-46
2022/10/19 11:37:15;;;;;;;10.45;1.80;;;15.50;99.90;;;;;;5037279;28;20408;-43
2022/10/19 11:40:12;;;;;;;12.13;1.90;;;15.80;99.90;;;;;;5037375;28;20041;-43
2022/10/19 11:43:06;;;;;;;10.02;1.55;;;15.80;99.90;;;;;;5032086;28;20388;-43
2022/10/19 11:45:57;;;;;;;10.07;1.80;;;16.00;99.90;;;;;;5039706;28;20046;-44
2022/10/19 11:48:47;;;;;;;10.15;1.77;;;16.20;99.90;;;;;;5041123;28;20040;-42
2022/10/19 11:51:21;;;;;;;11.95;3.20;;;16.00;99.90;;;;;;5042431;28;20095;-45
2022/10/19 11:53:56;;;;;;;8.75;1.67;;;16.30;99.90;;;;;;5041120;28;20047;-43
2022/10/19 11:56:28;;;;;;;9.55;1.70;;;16.30;99.90;;;;;;5038940;28;20025;-45
2022/10/19 11:59:32;;;;;;;10.70;2.33;;;16.30;99.90;;;;;;5038402;28;20041;-47
2022/10/19 12:02:19;;;;;;;10.15;1.98;;;16.10;99.90;;;;;;5034190;28;20073;-45
2022/10/19 12:05:00;;;;;;;11.18;2.05;;;16.00;99.90;;;;;;5040869;28;20469;-44
2022/10/19 12:07:47;;;;;;;10.77;1.75;;;16.10;99.90;;;;;;5041745;28;20041;-44
2022/10/19 12:10:37;;;;;;;9.98;1.67;;;15.90;99.90;;;;;;5038885;28;20736;-42
2022/10/19 12:13:06;;;;;;;11.70;1.98;;;15.90;99.90;;;;;;5040384;28;20079;-43
2022/10/19 12:15:34;;;;;;;8.60;1.70;;;16.00;99.90;;;;;;5038772;28;20127;-44
2022/10/19 12:18:12;;;;;;;14.15;2.00;;;16.00;99.90;;;;;;5039498;28;20060;-46
2022/10/19 12:20:44;;;;;;;9.20;1.80;;;15.90;99.90;;;;;;5041222;28;20255;-42
2022/10/19 12:23:22;;;;;;;9.60;1.90;;;15.80;99.90;;;;;;5034537;28;20128;-44
2022/10/19 12:25:49;;;;;;;9.18;2.30;;;15.80;99.90;;;;;;5038217;28;20072;-42
2022/10/19 12:28:23;;;;;;;8.88;2.00;;;15.80;99.90;;;;;;5039431;28;20040;-46
2022/10/19 12:30:51;;;;;;;9.15;2.08;;;15.60;99.90;;;;;;5039387;28;20385;-43
2022/10/19 12:33:29;;;;;;;8.07;1.67;;;15.50;99.90;;;;;;5040935;28;20090;-45
2022/10/19 12:36:20;;;;;;;11.38;2.03;;;15.60;99.90;;;;;;5037824;28;20045;-42
2022/10/19 12:39:17;;;;;;;8.02;1.80;;;15.50;99.90;;;;;;5040676;28;20045;-44
2022/10/19 12:42:11;;;;;;;10.35;2.60;;;15.40;99.90;;;;;;5039500;28;20049;-42
2022/10/19 12:45:04;;;;;;;9.80;2.10;;;15.50;99.90;;;;;;5041868;28;20484;-44
2022/10/19 12:47:30;;;;;;;9.32;2.38;;;15.70;99.90;;;;;;5040251;28;20075;-43
2022/10/19 12:49:57;;;;;;;12.63;2.35;;;15.90;99.90;;;;;;5043438;28;20049;-44
2022/10/19 12:52:53;;;;;;;9.65;1.98;;;16.00;99.90;;;;;;5045460;28;20143;-45
2022/10/19 12:55:26;;;;;;;10.77;2.05;;;16.00;99.90;;;;;;5038879;28;20081;-48
2022/10/19 12:58:01;;;;;;;9.53;1.90;;;16.00;99.90;;;;;;5042580;28;20111;-44
2022/10/19 13:00:36;;;;;;;8.88;2.10;;;15.90;99.90;;;;;;5045320;28;20072;-42
2022/10/19 13:03:20;;;;;;;8.07;1.92;;;16.00;99.90;;;;;;5044839;28;20049;-44
2022/10/19 13:05:58;;;;;;;14.93;6.10;;;16.10;99.90;;;;;;5045823;28;20040;-45
2022/10/19 13:08:31;;;;;;;13.43;5.13;;;16.20;99.90;;;;;;5046635;28;20607;-44